Disclaimer

Please do not use the information listed here in-flight or in-navigation, as they are not provided to us by the airports but are provided by volunteers, so they might be outdated.

Search


Regions


Airport information page

Radio informations:
Ground (GND) - 129.1 MHz

Airport informations:
Latitude: 09° 34' 36.80" N
Longitude: 013° 36' 43.06" W
Elevation: 72 feet - 22 meters
Operating hours: 24 hour operations
Operating agency: Civil government, landing fees and diplomatic clearance may be required
Timezone: UTC 0
Fuel: Jet A1, without icing nhibitor.

100/130 MIL Spec, low lead, aviation gasoline (BLUE)

Runway information:
06/24 - 10826 x 148 feet< - >3300 x 45 meters

Recent METARs:
GUCY 160800Z 03006KT 6000 HZ NSC 23/19 Q1014 NOSIG
GUCY 160900Z 03004KT 5000 HZ NSC 24/16 Q1015 NOSIG
GUCY 160900Z 03004KT 5000 HZ NSC 24/16 Q1015 NOSIG

Airport on the map: